createdAt,value
2022-09-24T00:00:34.044Z,101409.22
2022-09-24T00:05:35.751Z,101406.81
2022-09-24T00:10:36.228Z,101406.78
2022-09-24T00:15:37.200Z,101398.97
2022-09-24T00:20:34.697Z,101399.84
2022-09-24T00:25:49.914Z,101398.38
2022-09-24T00:30:49.797Z,101391.28
2022-09-24T00:35:46.721Z,101363.53
2022-09-24T00:40:43.579Z,101377.59
2022-09-24T00:45:42.080Z,101375.00
2022-09-24T00:50:45.319Z,101374.28
2022-09-24T00:55:44.996Z,101381.31
2022-09-24T01:00:49.754Z,101372.66
2022-09-24T01:05:48.331Z,101372.59
2022-09-24T01:10:52.701Z,101368.97
2022-09-24T01:15:51.931Z,101373.44
2022-09-24T01:20:59.920Z,101375.28
2022-09-24T01:26:03.345Z,101375.91
2022-09-24T01:31:04.953Z,101376.34
2022-09-24T01:36:06.345Z,101386.56
2022-09-24T01:41:10.406Z,101383.34
2022-09-24T01:46:10.187Z,101394.94
2022-09-24T01:51:14.610Z,101391.72
2022-09-24T01:56:15.974Z,101387.09
2022-09-24T02:01:17.404Z,101389.91
2022-09-24T02:06:16.194Z,101398.03
2022-09-24T02:11:15.490Z,101400.53
2022-09-24T02:16:15.714Z,101407.44
2022-09-24T02:21:17.062Z,101406.13
2022-09-24T02:26:16.925Z,101407.38
2022-09-24T02:31:19.084Z,101414.97
2022-09-24T02:36:17.609Z,101411.53
2022-09-24T02:41:15.348Z,101415.75
2022-09-24T02:46:12.178Z,101422.13
2022-09-24T02:51:11.367Z,101417.78
2022-09-24T02:56:08.963Z,101418.81
2022-09-24T03:01:07.534Z,101422.59
2022-09-24T03:06:04.484Z,101431.41
2022-09-24T03:11:01.191Z,101433.22
2022-09-24T03:16:01.516Z,101443.16
2022-09-24T03:21:01.837Z,101440.84
2022-09-24T03:26:00.621Z,101452.16
2022-09-24T03:31:01.426Z,101460.03
2022-09-24T03:35:59.074Z,101467.28
2022-09-24T03:40:58.313Z,101469.34
2022-09-24T03:45:55.315Z,101477.09
2022-09-24T03:50:55.106Z,101485.19
2022-09-24T03:55:56.294Z,101480.84
2022-09-24T04:00:55.235Z,101492.00
2022-09-24T04:05:55.871Z,101496.50
2022-09-24T04:10:52.843Z,101499.47
2022-09-24T04:15:51.106Z,101507.28
2022-09-24T04:20:50.929Z,101518.88
2022-09-24T04:25:50.607Z,101521.28
2022-09-24T04:30:50.026Z,101524.34
2022-09-24T04:35:47.067Z,101529.72
2022-09-24T04:40:46.700Z,101526.47
2022-09-24T04:45:44.439Z,101529.38
2022-09-24T04:50:46.293Z,101528.50
2022-09-24T04:55:43.982Z,101542.88
2022-09-24T05:00:42.676Z,101545.69
2022-09-24T05:05:41.124Z,101548.63
2022-09-24T05:10:48.229Z,101558.56
2022-09-24T05:15:47.875Z,101557.75
2022-09-24T05:20:46.197Z,101562.63
2022-09-24T05:25:57.378Z,101572.03
2022-09-24T05:30:56.787Z,101574.50
2022-09-24T05:35:54.858Z,101575.41
2022-09-24T05:40:51.717Z,101570.13
2022-09-24T05:45:52.144Z,101567.25
2022-09-24T05:50:54.652Z,101580.56
2022-09-24T05:55:53.611Z,101593.09
2022-09-24T06:00:53.186Z,101600.13
2022-09-24T06:05:51.568Z,101611.63
2022-09-24T06:10:48.875Z,101617.41
2022-09-24T06:15:47.707Z,101623.13
2022-09-24T06:20:47.082Z,101627.94
2022-09-24T06:25:48.937Z,101633.06
2022-09-24T06:30:47.209Z,101633.44
2022-09-24T06:35:47.482Z,101630.72
2022-09-24T06:40:47.893Z,101639.09
2022-09-24T06:45:46.572Z,101648.22
2022-09-24T06:50:44.886Z,101649.19
2022-09-24T06:55:42.102Z,101656.56
2022-09-24T07:00:54.439Z,101654.50
2022-09-24T07:05:51.988Z,101661.34
2022-09-24T07:10:52.094Z,101664.06
2022-09-24T07:15:51.165Z,101662.00
2022-09-24T07:20:54.990Z,101663.59
2022-09-24T07:25:55.383Z,101671.22
2022-09-24T07:31:00.576Z,101671.03
2022-09-24T07:35:58.401Z,101669.28
2022-09-24T07:40:58.811Z,101670.41
2022-09-24T07:46:00.728Z,101673.53
2022-09-24T07:50:58.195Z,101673.72
2022-09-24T07:56:01.024Z,101667.72
2022-09-24T08:01:05.063Z,101673.25
2022-09-24T08:06:03.832Z,101669.47
2022-09-24T08:11:03.276Z,101671.44
2022-09-24T08:16:01.134Z,101670.75
2022-09-24T08:21:00.882Z,101646.56
2022-09-24T08:25:58.426Z,101653.25
2022-09-24T08:30:59.995Z,101652.16
2022-09-24T08:35:59.177Z,101653.19
2022-09-24T08:41:04.381Z,101650.50
2022-09-24T08:46:23.574Z,101651.56
2022-09-24T08:51:24.098Z,101644.91
2022-09-24T08:56:26.652Z,101644.72
2022-09-24T09:01:31.586Z,101645.13
2022-09-24T09:06:46.310Z,101647.50
2022-09-24T09:11:50.350Z,101654.84
2022-09-24T09:16:53.002Z,101656.56
2022-09-24T09:21:53.380Z,101657.09
2022-09-24T09:26:51.339Z,101650.81
2022-09-24T09:31:56.367Z,101640.59
2022-09-24T09:37:06.135Z,101642.97
2022-09-24T09:42:11.286Z,101632.41
2022-09-24T09:47:16.586Z,101628.91
2022-09-24T09:52:15.718Z,101620.38
2022-09-24T09:57:16.579Z,101605.66
2022-09-24T10:02:23.112Z,101595.53
2022-09-24T10:07:20.706Z,101606.13
2022-09-24T10:12:28.132Z,101605.50
2022-09-24T10:17:28.041Z,101602.22
2022-09-24T10:22:39.233Z,101606.84
2022-09-24T10:27:38.102Z,101589.72
2022-09-24T10:32:48.299Z,101578.22
2022-09-24T10:38:29.591Z,101578.88
2022-09-24T10:43:31.668Z,101577.69
2022-09-24T10:48:32.529Z,101558.91
2022-09-24T10:53:38.358Z,101552.53
2022-09-24T10:58:48.201Z,101540.56
2022-09-24T11:04:05.446Z,101545.63
2022-09-24T11:09:13.144Z,101534.53
2022-09-24T11:14:20.023Z,101538.31
2022-09-24T11:19:30.099Z,101525.28
2022-09-24T11:24:34.277Z,101518.84
2022-09-24T11:29:45.263Z,101525.78
2022-09-24T11:35:51.839Z,101519.94
2022-09-24T11:47:21.384Z,101526.03
2022-09-24T11:58:26.327Z,101515.25
2022-09-24T12:03:32.374Z,101512.59
2022-09-24T12:08:32.845Z,101493.75
2022-09-24T12:13:34.138Z,101517.97
2022-09-24T12:18:33.925Z,101527.53
2022-09-24T12:23:38.630Z,101520.41
2022-09-24T12:29:05.648Z,101522.19
2022-09-24T12:34:14.625Z,101508.22
2022-09-24T12:39:17.943Z,101510.34
2022-09-24T12:44:21.975Z,101505.78
2022-09-24T12:49:30.528Z,101496.13
2022-09-24T12:54:31.789Z,101494.50
2022-09-24T12:59:29.667Z,101486.59
2022-09-24T13:04:28.258Z,101487.16
2022-09-24T13:09:37.927Z,101484.91
2022-09-24T13:14:35.070Z,101475.41
2022-09-24T13:19:35.271Z,101487.56
2022-09-24T13:24:45.288Z,101486.13
2022-09-24T13:29:46.009Z,101478.28
2022-09-24T13:34:44.758Z,101475.53
2022-09-24T13:39:46.139Z,101477.91
2022-09-24T13:44:46.432Z,101482.25
2022-09-24T13:49:46.911Z,101470.38
2022-09-24T13:54:51.553Z,101477.13
2022-09-24T13:59:48.306Z,101470.41
2022-09-24T14:04:54.301Z,101460.09
2022-09-24T14:10:01.510Z,101453.91
2022-09-24T14:14:59.341Z,101446.13
2022-09-24T14:19:57.006Z,101460.28
2022-09-24T14:24:56.272Z,101455.63
2022-09-24T14:29:55.470Z,101463.88
2022-09-24T14:34:53.301Z,101468.28
2022-09-24T14:39:56.488Z,101456.66
2022-09-24T14:44:56.633Z,101443.75
2022-09-24T14:49:56.961Z,101456.28
2022-09-24T14:55:15.321Z,101452.00
2022-09-24T15:00:19.606Z,101455.06
2022-09-24T15:05:57.462Z,101456.78
2022-09-24T15:10:58.878Z,101452.31
2022-09-24T15:16:02.953Z,101447.00
2022-09-24T15:21:00.031Z,101441.47
2022-09-24T15:25:58.790Z,101448.88
2022-09-24T15:37:23.139Z,101449.44
2022-09-24T15:42:26.645Z,101454.56
2022-09-24T15:47:23.543Z,101454.56
2022-09-24T15:52:25.415Z,101452.53
2022-09-24T15:57:25.396Z,101444.28
2022-09-24T16:02:38.610Z,101450.25
2022-09-24T16:07:36.039Z,101453.16
2022-09-24T16:12:32.658Z,101447.25
2022-09-24T16:17:30.056Z,101450.88
2022-09-24T16:22:28.026Z,101439.06
2022-09-24T16:27:24.777Z,101448.06
2022-09-24T16:32:21.510Z,101447.94
2022-09-24T16:37:20.447Z,101454.47
2022-09-24T16:42:17.197Z,101460.38
2022-09-24T16:47:15.702Z,101462.56
2022-09-24T16:52:14.217Z,101459.78
2022-09-24T16:57:18.749Z,101463.75
2022-09-24T17:02:19.878Z,101468.81
2022-09-24T17:07:17.305Z,101484.31
2022-09-24T17:12:17.618Z,101484.69
2022-09-24T17:17:14.361Z,101476.84
2022-09-24T17:22:12.175Z,101486.88
2022-09-24T17:27:09.092Z,101489.63
2022-09-24T17:32:12.519Z,101492.94
2022-09-24T17:37:11.750Z,101499.78
2022-09-24T17:42:08.597Z,101515.22
2022-09-24T17:47:07.216Z,101518.84
2022-09-24T17:52:04.486Z,101509.06
2022-09-24T17:57:01.541Z,101515.69
2022-09-24T18:01:59.686Z,101519.47
2022-09-24T18:07:36.922Z,101517.13
2022-09-24T18:12:34.376Z,101508.53
2022-09-24T18:17:31.085Z,101503.75
2022-09-24T18:22:29.042Z,101509.31
2022-09-24T18:27:25.821Z,101505.84
2022-09-24T18:32:26.066Z,101499.97
2022-09-24T18:37:26.197Z,101512.44
2022-09-24T18:42:29.693Z,101492.50
2022-09-24T18:47:27.391Z,101514.66
2022-09-24T18:52:26.021Z,101507.09
2022-09-24T18:57:22.954Z,101501.31
2022-09-24T19:02:23.364Z,101499.84
2022-09-24T19:07:21.683Z,101508.91
2022-09-24T19:12:21.997Z,101500.56
2022-09-24T19:17:18.853Z,101480.56
2022-09-24T19:22:15.917Z,101505.88
2022-09-24T19:27:15.894Z,101495.03
2022-09-24T19:32:12.742Z,101496.66
2022-09-24T19:37:12.135Z,101507.91
2022-09-24T19:42:09.089Z,101520.78
2022-09-24T19:47:10.555Z,101517.56
2022-09-24T19:52:13.147Z,101528.00
2022-09-24T19:57:11.566Z,101501.72
2022-09-24T20:02:14.174Z,101522.41
2022-09-24T20:07:17.388Z,101535.13
2022-09-24T20:12:19.569Z,101526.00
2022-09-24T20:17:17.002Z,101531.81
2022-09-24T20:22:17.369Z,101529.97
2022-09-24T20:27:54.887Z,101527.94
2022-09-24T20:32:57.858Z,101531.94
2022-09-24T20:37:54.743Z,101549.25
2022-09-24T20:42:51.579Z,101553.63
2022-09-24T20:47:49.939Z,101558.19
2022-09-24T20:52:47.652Z,101551.47
2022-09-24T20:57:45.765Z,101556.03
2022-09-24T21:02:48.511Z,101548.72
2022-09-24T21:08:15.997Z,101549.56
2022-09-24T21:13:19.953Z,101554.25
2022-09-24T21:18:40.062Z,101549.09
2022-09-24T21:23:41.833Z,101547.13
2022-09-24T21:29:12.994Z,101544.06
2022-09-24T21:34:15.740Z,101550.03
2022-09-24T21:39:15.529Z,101537.09
2022-09-24T21:44:20.892Z,101540.28
2022-09-24T21:49:36.343Z,101527.19
2022-09-24T21:54:57.036Z,101515.34
2022-09-24T22:00:14.851Z,101514.38
2022-09-24T22:05:27.130Z,101508.00
2022-09-24T22:10:34.916Z,101510.59
2022-09-24T22:15:51.003Z,101516.69
2022-09-24T22:20:53.084Z,101504.03
2022-09-24T22:25:59.158Z,101504.53
2022-09-24T22:31:22.796Z,101507.66
2022-09-24T22:36:40.700Z,101518.03
2022-09-24T22:47:03.906Z,101511.50
2022-09-24T22:52:07.453Z,101522.72
2022-09-24T22:57:04.406Z,101518.44
2022-09-24T23:02:13.442Z,101522.66
2022-09-24T23:07:16.596Z,101522.88
2022-09-24T23:12:27.328Z,101518.75
2022-09-24T23:17:40.763Z,101512.19
2022-09-24T23:22:41.341Z,101515.91
2022-09-24T23:27:38.268Z,101502.25
2022-09-24T23:32:46.428Z,101500.91
2022-09-24T23:37:46.079Z,101503.22
2022-09-24T23:42:43.521Z,101491.00
2022-09-24T23:47:40.604Z,101495.19
2022-09-24T23:52:40.494Z,101494.22
2022-09-24T23:57:55.686Z,101493.81
